createdAt,value
2023-05-10T00:01:32.311Z,96812.38
2023-05-10T00:03:59.851Z,96817.16
2023-05-10T00:06:27.811Z,96819.00
2023-05-10T00:08:55.295Z,96816.22
2023-05-10T00:11:24.128Z,96810.38
2023-05-10T00:13:54.322Z,96808.38
2023-05-10T00:16:21.994Z,96811.88
2023-05-10T00:18:49.507Z,96814.44
2023-05-10T00:21:16.983Z,96818.38
2023-05-10T00:23:44.463Z,96811.56
2023-05-10T00:26:12.008Z,96812.34
2023-05-10T00:28:42.317Z,96809.69
2023-05-10T00:31:09.835Z,96810.84
2023-05-10T00:33:37.344Z,96805.13
2023-05-10T00:36:05.387Z,96804.56
2023-05-10T00:38:33.027Z,96800.25
2023-05-10T00:41:00.529Z,96786.63
2023-05-10T00:43:31.802Z,96789.06
2023-05-10T00:46:01.455Z,96793.38
2023-05-10T00:48:30.644Z,96790.34
2023-05-10T00:50:58.277Z,96790.06
2023-05-10T00:53:26.499Z,96790.53
2023-05-10T00:55:54.080Z,96783.34
2023-05-10T00:58:21.906Z,96780.44
2023-05-10T01:00:49.992Z,96784.31
2023-05-10T01:03:19.066Z,96789.16
2023-05-10T01:05:46.672Z,96782.16
2023-05-10T01:08:14.206Z,96782.97
2023-05-10T01:10:42.090Z,96780.91
2023-05-10T01:13:09.730Z,96780.44
2023-05-10T01:15:37.665Z,96776.13
2023-05-10T01:18:05.385Z,96771.00
2023-05-10T01:20:38.141Z,96776.72
2023-05-10T01:23:26.813Z,96771.00
2023-05-10T01:26:09.841Z,96768.75
2023-05-10T01:28:53.969Z,96773.84
2023-05-10T01:31:25.273Z,96770.03
2023-05-10T01:33:57.782Z,96771.19
2023-05-10T01:36:29.685Z,96754.44
2023-05-10T01:39:01.276Z,96760.59
2023-05-10T01:41:35.220Z,96758.94
2023-05-10T01:44:07.116Z,96752.91
2023-05-10T01:46:37.700Z,96752.44
2023-05-10T01:49:11.472Z,96755.59
2023-05-10T01:51:42.062Z,96752.66
2023-05-10T01:54:10.600Z,96760.47
2023-05-10T01:56:39.758Z,96765.56
2023-05-10T01:59:11.254Z,96762.66
2023-05-10T02:01:39.421Z,96749.59
2023-05-10T02:04:09.856Z,96758.84
2023-05-10T02:06:38.092Z,96757.19
2023-05-10T02:09:06.186Z,96756.50
2023-05-10T02:11:34.216Z,96758.94
2023-05-10T02:14:02.299Z,96757.31
2023-05-10T02:16:31.950Z,96761.63
2023-05-10T02:19:01.302Z,96761.03
2023-05-10T02:21:30.508Z,96758.34
2023-05-10T02:23:59.217Z,96761.41
2023-05-10T02:26:27.533Z,96761.41
2023-05-10T02:28:55.711Z,96761.59
2023-05-10T02:31:23.900Z,96756.22
2023-05-10T02:33:52.497Z,96760.09
2023-05-10T02:36:22.144Z,96765.34
2023-05-10T02:38:51.855Z,96771.06
2023-05-10T02:41:20.217Z,96765.34
2023-05-10T02:43:49.331Z,96765.06
2023-05-10T02:46:16.863Z,96764.25
2023-05-10T02:48:44.352Z,96762.78
2023-05-10T02:51:14.758Z,96759.88
2023-05-10T02:53:43.302Z,96758.09
2023-05-10T02:56:16.083Z,96759.72
2023-05-10T02:58:43.571Z,96750.88
2023-05-10T03:01:11.459Z,96757.59
2023-05-10T03:03:39.659Z,96752.84
2023-05-10T03:06:07.424Z,96754.91
2023-05-10T03:08:35.600Z,96748.91
2023-05-10T03:11:23.392Z,96752.25
2023-05-10T03:13:59.059Z,96757.00
2023-05-10T03:16:29.585Z,96755.75
2023-05-10T03:19:04.665Z,96748.19
2023-05-10T03:21:32.847Z,96744.25
2023-05-10T03:24:07.589Z,96745.44
2023-05-10T03:26:39.034Z,96743.31
2023-05-10T03:29:12.623Z,96745.66
2023-05-10T03:31:40.290Z,96744.63
2023-05-10T03:34:08.134Z,96746.81
2023-05-10T03:36:36.033Z,96740.28
2023-05-10T03:39:03.708Z,96745.03
2023-05-10T03:41:31.723Z,96738.69
2023-05-10T03:44:00.710Z,96744.22
2023-05-10T03:46:29.872Z,96743.63
2023-05-10T03:48:57.399Z,96749.66
2023-05-10T03:51:28.891Z,96743.50
2023-05-10T03:53:56.486Z,96744.53
2023-05-10T03:56:24.163Z,96755.69
2023-05-10T03:58:51.678Z,96746.94
2023-05-10T04:01:20.536Z,96755.47
2023-05-10T04:03:48.247Z,96749.75
2023-05-10T04:06:16.065Z,96743.59
2023-05-10T04:08:43.568Z,96746.72
2023-05-10T04:11:12.414Z,96754.53
2023-05-10T04:13:39.983Z,96747.16
2023-05-10T04:16:07.999Z,96754.97
2023-05-10T04:18:36.850Z,96760.81
2023-05-10T04:21:04.537Z,96754.97
2023-05-10T04:23:32.002Z,96747.97
2023-05-10T04:26:02.887Z,96749.47
2023-05-10T04:28:30.464Z,96752.84
2023-05-10T04:31:03.373Z,96757.75
2023-05-10T04:33:30.976Z,96763.97
2023-05-10T04:35:59.889Z,96760.47
2023-05-10T04:38:27.852Z,96748.97
2023-05-10T04:40:55.781Z,96753.28
2023-05-10T04:43:23.451Z,96766.53
2023-05-10T04:45:51.242Z,96761.19
2023-05-10T04:48:18.792Z,96757.97
2023-05-10T04:50:46.277Z,96758.50
2023-05-10T04:53:16.053Z,96757.22
2023-05-10T04:55:43.604Z,96760.88
2023-05-10T04:58:11.194Z,96767.03
2023-05-10T05:00:38.680Z,96769.81
2023-05-10T05:03:06.280Z,96773.47
2023-05-10T05:05:33.865Z,96767.44
2023-05-10T05:08:01.718Z,96770.94
2023-05-10T05:10:30.878Z,96775.84
2023-05-10T05:12:58.404Z,96776.09
2023-05-10T05:15:25.943Z,96769.94
2023-05-10T05:17:53.522Z,96778.19
2023-05-10T05:20:21.091Z,96778.13
2023-05-10T05:22:48.577Z,96788.94
2023-05-10T05:25:16.269Z,96779.00
2023-05-10T05:27:45.148Z,96785.69
2023-05-10T05:30:13.490Z,96780.25
2023-05-10T05:32:41.057Z,96782.44
2023-05-10T05:35:09.361Z,96781.97
2023-05-10T05:37:38.398Z,96779.22
2023-05-10T05:40:07.007Z,96792.22
2023-05-10T05:42:34.537Z,96788.41
2023-05-10T05:45:03.357Z,96780.72
2023-05-10T05:47:31.016Z,96785.13
2023-05-10T05:49:58.552Z,96797.78
2023-05-10T05:52:26.076Z,96794.19
2023-05-10T05:54:53.628Z,96796.09
2023-05-10T05:57:21.151Z,96807.47
2023-05-10T05:59:48.768Z,96802.72
2023-05-10T06:02:17.676Z,96818.78
2023-05-10T06:04:45.204Z,96814.31
2023-05-10T06:07:12.806Z,96831.72
2023-05-10T06:09:40.339Z,96833.13
2023-05-10T06:12:07.969Z,96838.13
2023-05-10T06:14:35.444Z,96843.38
2023-05-10T06:17:05.035Z,96844.53
2023-05-10T06:19:35.577Z,96846.91
2023-05-10T06:22:03.536Z,96854.56
2023-05-10T06:24:31.068Z,96857.69
2023-05-10T06:27:01.145Z,96858.16
2023-05-10T06:29:28.743Z,96867.72
2023-05-10T06:31:56.383Z,96866.03
2023-05-10T06:34:24.011Z,96868.53
2023-05-10T06:36:52.924Z,96872.66
2023-05-10T06:39:20.739Z,96877.19
2023-05-10T06:41:48.236Z,96885.63
2023-05-10T06:44:15.782Z,96882.00
2023-05-10T06:46:43.551Z,96889.25
2023-05-10T06:49:11.112Z,96890.09
2023-05-10T06:51:38.714Z,96892.19
2023-05-10T06:54:07.789Z,96899.75
2023-05-10T06:56:35.375Z,96893.38
2023-05-10T06:59:02.960Z,96899.59
2023-05-10T07:01:30.491Z,96904.13
2023-05-10T07:03:57.978Z,96905.06
2023-05-10T07:06:33.555Z,96903.22
2023-05-10T07:09:01.579Z,96906.94
2023-05-10T07:11:30.614Z,96908.94
2023-05-10T07:13:58.115Z,96908.50
2023-05-10T07:16:25.823Z,96910.41
2023-05-10T07:18:54.499Z,96902.88
2023-05-10T07:21:22.119Z,96918.72
2023-05-10T07:23:49.618Z,96911.66
2023-05-10T07:26:17.188Z,96919.47
2023-05-10T07:28:45.992Z,96922.63
2023-05-10T07:31:13.516Z,96923.78
2023-05-10T07:33:40.996Z,96918.66
2023-05-10T07:36:08.922Z,96920.97
2023-05-10T07:38:37.542Z,96914.25
2023-05-10T07:41:06.899Z,96921.03
2023-05-10T07:43:34.466Z,96918.09
2023-05-10T07:46:03.672Z,96927.16
2023-05-10T07:48:31.249Z,96923.91
2023-05-10T07:50:58.754Z,96927.16
2023-05-10T07:53:27.745Z,96928.72
2023-05-10T07:55:56.695Z,96929.88
2023-05-10T07:58:24.286Z,96929.28
2023-05-10T08:00:51.828Z,96930.34
2023-05-10T08:03:20.807Z,96927.06
2023-05-10T08:05:49.626Z,96932.22
2023-05-10T08:08:17.112Z,96932.03
2023-05-10T08:10:45.023Z,96925.84
2023-05-10T08:13:12.520Z,96927.91
2023-05-10T08:15:40.049Z,96926.56
2023-05-10T08:18:07.889Z,96939.28
2023-05-10T08:20:36.806Z,96933.50
2023-05-10T08:23:04.473Z,96931.16
2023-05-10T08:25:32.080Z,96932.59
2023-05-10T08:27:59.856Z,96932.31
2023-05-10T08:30:27.388Z,96935.78
2023-05-10T08:33:01.084Z,96938.28
2023-05-10T08:35:28.652Z,96941.88
2023-05-10T08:37:57.528Z,96944.13
2023-05-10T08:40:26.276Z,96945.97
2023-05-10T08:42:57.881Z,96955.63
2023-05-10T08:45:25.643Z,96955.16
2023-05-10T08:47:54.261Z,96960.34
2023-05-10T08:50:22.866Z,96962.84
2023-05-10T08:52:55.251Z,96962.81
2023-05-10T08:55:25.378Z,96956.06
2023-05-10T08:57:53.045Z,96966.56
2023-05-10T09:00:22.103Z,96971.03
2023-05-10T09:02:51.189Z,96965.31
2023-05-10T09:05:19.152Z,96970.03
2023-05-10T09:07:47.126Z,96974.34
2023-05-10T09:10:15.241Z,96978.34
2023-05-10T09:12:46.223Z,96978.75
2023-05-10T09:15:15.944Z,96982.03
2023-05-10T09:17:44.277Z,96975.25
2023-05-10T09:20:12.149Z,96983.19
2023-05-10T09:22:39.848Z,96990.63
2023-05-10T09:25:08.826Z,96980.72
2023-05-10T09:27:36.831Z,96993.91
2023-05-10T09:30:07.754Z,96993.00
2023-05-10T09:32:39.493Z,96996.91
2023-05-10T09:35:10.965Z,96998.75
2023-05-10T09:37:38.506Z,97002.44
2023-05-10T09:40:10.132Z,97009.63
2023-05-10T09:42:37.652Z,97010.44
2023-05-10T09:45:07.839Z,97009.66
2023-05-10T09:47:36.087Z,97009.84
2023-05-10T09:50:05.471Z,97013.78
2023-05-10T09:52:33.820Z,97011.22
2023-05-10T09:55:01.425Z,97007.31
2023-05-10T09:57:28.968Z,97009.97
2023-05-10T09:59:58.421Z,97007.88
2023-05-10T10:02:31.547Z,97003.41
2023-05-10T10:04:59.390Z,97011.22
2023-05-10T10:07:28.114Z,97008.09
2023-05-10T10:09:55.785Z,97012.78
2023-05-10T10:12:23.338Z,97015.56
2023-05-10T10:14:51.829Z,97016.31
2023-05-10T10:17:19.535Z,97012.47
2023-05-10T10:19:48.916Z,97010.16
2023-05-10T10:22:16.434Z,97009.94
2023-05-10T10:24:44.007Z,97008.06
2023-05-10T10:27:23.653Z,97004.88
2023-05-10T10:29:58.368Z,97007.22
2023-05-10T10:32:29.827Z,97010.63
2023-05-10T10:34:58.917Z,97012.41
2023-05-10T10:37:43.304Z,96997.38
2023-05-10T10:40:24.454Z,97002.59
2023-05-10T10:42:52.199Z,97008.13
2023-05-10T10:45:19.987Z,97014.22
2023-05-10T10:47:47.855Z,97005.88
2023-05-10T10:50:17.256Z,97009.97
2023-05-10T10:52:45.558Z,97008.13
2023-05-10T10:55:14.546Z,97008.50
2023-05-10T10:57:47.156Z,97008.19
2023-05-10T11:00:27.044Z,97006.88
2023-05-10T11:02:56.220Z,97005.88
2023-05-10T11:05:44.179Z,97002.88
2023-05-10T11:08:14.138Z,97003.25
2023-05-10T11:10:42.672Z,97003.13
2023-05-10T11:13:11.169Z,97010.72
2023-05-10T11:15:40.304Z,96998.19
2023-05-10T11:18:20.835Z,97009.66
2023-05-10T11:20:53.921Z,97009.34
2023-05-10T11:23:22.276Z,97004.91
2023-05-10T11:25:50.826Z,97015.44
2023-05-10T11:28:19.640Z,97006.72
2023-05-10T11:30:47.570Z,97013.59
2023-05-10T11:33:20.325Z,97012.69
2023-05-10T11:35:48.297Z,97000.91
2023-05-10T11:38:17.404Z,97003.63
2023-05-10T11:40:45.371Z,97000.28
2023-05-10T11:43:13.280Z,96999.59
2023-05-10T11:45:43.136Z,96999.75
2023-05-10T11:48:10.689Z,96996.34
2023-05-10T11:50:38.300Z,96995.28
2023-05-10T11:53:06.315Z,97002.06
2023-05-10T11:55:36.693Z,96996.97
2023-05-10T11:58:04.643Z,97008.06
2023-05-10T12:00:32.506Z,97004.53
2023-05-10T12:03:02.622Z,97002.22
2023-05-10T12:05:30.651Z,97011.22
2023-05-10T12:08:12.733Z,97005.25
2023-05-10T12:10:41.658Z,97013.78
2023-05-10T12:13:13.340Z,97012.38
2023-05-10T12:15:40.893Z,97011.69
2023-05-10T12:18:11.353Z,97010.63
2023-05-10T12:20:39.702Z,97007.44
2023-05-10T12:23:10.509Z,97017.59
2023-05-10T12:25:40.073Z,97013.31
2023-05-10T12:28:10.591Z,97007.78
2023-05-10T12:30:38.449Z,97008.38
2023-05-10T12:33:10.258Z,97007.41
2023-05-10T12:35:46.426Z,97012.63
2023-05-10T12:38:31.583Z,97013.34
2023-05-10T12:41:00.250Z,97010.09
2023-05-10T12:43:29.195Z,97017.44
2023-05-10T12:45:56.721Z,97016.50
2023-05-10T12:48:24.552Z,97021.81
2023-05-10T12:50:52.090Z,97025.19
2023-05-10T12:53:19.583Z,97032.66
2023-05-10T12:55:47.166Z,97030.59
2023-05-10T12:58:31.573Z,97029.75
2023-05-10T13:01:03.846Z,97033.41
2023-05-10T13:03:31.474Z,97029.56
2023-05-10T13:05:59.115Z,97033.53
2023-05-10T13:08:30.680Z,97036.63
2023-05-10T13:10:58.173Z,97033.13
2023-05-10T13:13:25.695Z,97042.81
2023-05-10T13:15:53.195Z,97044.91
2023-05-10T13:18:22.163Z,97051.06
2023-05-10T13:20:50.571Z,97050.84
2023-05-10T13:23:18.129Z,97050.03
2023-05-10T13:25:45.626Z,97041.53
2023-05-10T13:28:13.116Z,97039.88
2023-05-10T13:30:40.603Z,97046.75
2023-05-10T13:33:08.194Z,97051.41
2023-05-10T13:35:37.124Z,97044.22
2023-05-10T13:38:04.655Z,97039.47
2023-05-10T13:40:32.238Z,97034.44
2023-05-10T13:42:59.785Z,97033.03
2023-05-10T13:45:27.280Z,97035.94
2023-05-10T13:47:55.098Z,97035.03
2023-05-10T13:50:22.649Z,97032.00
2023-05-10T13:52:51.509Z,97032.00
2023-05-10T13:55:19.428Z,97029.44
2023-05-10T13:57:47.283Z,97035.38
2023-05-10T14:00:15.692Z,97023.47
2023-05-10T14:02:43.315Z,97032.34
2023-05-10T14:05:11.126Z,97030.00
2023-05-10T14:07:38.895Z,97024.38
2023-05-10T14:10:08.435Z,97029.44
2023-05-10T14:12:36.050Z,97025.69
2023-05-10T14:15:03.801Z,97024.75
2023-05-10T14:17:31.430Z,97018.69
2023-05-10T14:19:59.109Z,97027.78
2023-05-10T14:22:26.774Z,97020.66
2023-05-10T14:24:54.313Z,97025.81
2023-05-10T14:27:24.310Z,97028.50
2023-05-10T14:29:52.012Z,97033.84
2023-05-10T14:32:19.692Z,97026.75
2023-05-10T14:34:47.252Z,97025.09
2023-05-10T14:37:15.995Z,97028.03
2023-05-10T14:39:43.738Z,97026.16
2023-05-10T14:42:12.024Z,97027.56
2023-05-10T14:44:40.828Z,97021.72
2023-05-10T14:47:09.425Z,97017.28
2023-05-10T14:49:39.072Z,97031.41
2023-05-10T14:52:06.580Z,97021.50
2023-05-10T14:54:34.427Z,97020.31
2023-05-10T14:57:02.312Z,97019.28
2023-05-10T14:59:29.781Z,97016.47
2023-05-10T15:01:59.005Z,97025.22
2023-05-10T15:04:28.545Z,97024.28
2023-05-10T15:07:00.199Z,97025.94
2023-05-10T15:09:28.444Z,97036.69
2023-05-10T15:11:56.089Z,97038.31
2023-05-10T15:14:23.837Z,97034.56
2023-05-10T15:16:51.366Z,97034.56
2023-05-10T15:19:21.962Z,97038.06
2023-05-10T15:21:49.488Z,97044.25
2023-05-10T15:24:16.966Z,97045.41
2023-05-10T15:26:44.649Z,97046.13
2023-05-10T15:29:12.204Z,97049.28
2023-05-10T15:31:40.479Z,97058.50
2023-05-10T15:34:08.095Z,97054.88
2023-05-10T15:36:36.961Z,97050.44
2023-05-10T15:39:04.893Z,97053.03
2023-05-10T15:41:32.459Z,97057.56
2023-05-10T15:44:00.585Z,97052.19
2023-05-10T15:46:28.697Z,97053.84
2023-05-10T15:48:57.120Z,97052.88
2023-05-10T15:51:24.642Z,97043.41
2023-05-10T15:54:05.834Z,97053.03
2023-05-10T15:56:34.982Z,97057.13
2023-05-10T15:59:02.493Z,97050.09
2023-05-10T16:01:30.799Z,97057.00
2023-05-10T16:03:58.308Z,97051.25
2023-05-10T16:06:26.014Z,97059.31
2023-05-10T16:08:55.025Z,97057.81
2023-05-10T16:11:22.705Z,97059.81
2023-05-10T16:13:50.235Z,97056.53
2023-05-10T16:16:18.021Z,97054.31
2023-05-10T16:18:45.960Z,97055.34
2023-05-10T16:21:13.566Z,97053.13
2023-05-10T16:23:41.237Z,97050.22
2023-05-10T16:26:13.477Z,97055.47
2023-05-10T16:28:41.324Z,97049.88
2023-05-10T16:31:09.017Z,97052.44
2023-05-10T16:33:37.317Z,97057.00
2023-05-10T16:36:06.121Z,97054.88
2023-05-10T16:38:33.654Z,97057.13
2023-05-10T16:41:03.530Z,97054.53
2023-05-10T16:43:33.388Z,97064.94
2023-05-10T16:46:00.930Z,97064.34
2023-05-10T16:48:28.796Z,97075.78
2023-05-10T16:50:56.343Z,97080.47
2023-05-10T16:53:23.840Z,97084.31
2023-05-10T16:55:51.420Z,97077.78
2023-05-10T16:58:18.945Z,97087.31
2023-05-10T17:00:48.385Z,97088.75
2023-05-10T17:03:15.977Z,97092.03
2023-05-10T17:05:43.518Z,97090.84
2023-05-10T17:08:11.617Z,97092.94
2023-05-10T17:10:40.988Z,97094.56
2023-05-10T17:13:10.393Z,97098.78
2023-05-10T17:15:38.496Z,97096.19
2023-05-10T17:18:08.028Z,97103.34
2023-05-10T17:20:35.628Z,97107.16
2023-05-10T17:23:03.264Z,97104.75
2023-05-10T17:25:30.752Z,97099.16
2023-05-10T17:27:58.237Z,97110.28
2023-05-10T17:30:28.078Z,97108.75
2023-05-10T17:32:56.301Z,97109.34
2023-05-10T17:35:28.111Z,97111.44
2023-05-10T17:37:55.779Z,97114.72
2023-05-10T17:40:23.320Z,97116.59
2023-05-10T17:42:51.983Z,97114.00
2023-05-10T17:45:21.790Z,97118.19
2023-05-10T17:47:49.460Z,97120.75
2023-05-10T17:50:17.034Z,97120.75
2023-05-10T17:52:46.806Z,97127.63
2023-05-10T17:55:14.517Z,97119.44
2023-05-10T17:57:42.198Z,97131.91
2023-05-10T18:00:10.946Z,97127.72
2023-05-10T18:02:41.320Z,97122.59
2023-05-10T18:05:09.516Z,97133.41
2023-05-10T18:07:37.198Z,97127.31
2023-05-10T18:10:08.918Z,97134.47
2023-05-10T18:12:36.448Z,97134.00
2023-05-10T18:15:04.735Z,97135.34
2023-05-10T18:17:33.491Z,97140.09
2023-05-10T18:20:13.566Z,97146.28
2023-05-10T18:22:41.160Z,97139.03
2023-05-10T18:25:10.743Z,97145.69
2023-05-10T18:27:39.373Z,97145.47
2023-05-10T18:30:10.043Z,97157.69
2023-05-10T18:32:38.449Z,97153.34
2023-05-10T18:35:06.918Z,97149.78
2023-05-10T18:38:00.613Z,97151.13
2023-05-10T18:40:29.629Z,97146.97
2023-05-10T18:42:58.218Z,97152.16
2023-05-10T18:45:25.720Z,97153.38
2023-05-10T18:47:53.285Z,97153.00
2023-05-10T18:50:20.944Z,97157.47
2023-05-10T18:52:50.585Z,97161.25
2023-05-10T18:55:18.462Z,97162.84
2023-05-10T18:57:49.563Z,97160.38
2023-05-10T19:00:18.632Z,97164.91
2023-05-10T19:02:48.304Z,97159.34
2023-05-10T19:05:16.581Z,97170.56
2023-05-10T19:07:44.333Z,97167.38
2023-05-10T19:10:13.415Z,97164.91
2023-05-10T19:12:42.186Z,97182.66
2023-05-10T19:15:11.730Z,97169.97
2023-05-10T19:17:41.102Z,97165.06
2023-05-10T19:20:10.572Z,97172.50
2023-05-10T19:22:54.186Z,97176.59
2023-05-10T19:25:29.324Z,97173.03
2023-05-10T19:27:57.780Z,97181.75
2023-05-10T19:30:28.619Z,97181.66
2023-05-10T19:32:56.415Z,97181.00
2023-05-10T19:35:24.477Z,97184.47
2023-05-10T19:37:52.204Z,97176.16
2023-05-10T19:40:19.676Z,97175.88
2023-05-10T19:42:47.293Z,97184.25
2023-05-10T19:45:15.789Z,97175.69
2023-05-10T19:47:44.989Z,97174.38
2023-05-10T19:50:13.873Z,97173.25
2023-05-10T19:52:41.460Z,97170.78
2023-05-10T19:55:09.476Z,97172.88
2023-05-10T19:57:36.968Z,97177.56
2023-05-10T20:00:06.690Z,97177.34
2023-05-10T20:02:38.768Z,97178.97
2023-05-10T20:05:08.862Z,97176.31
2023-05-10T20:07:37.428Z,97182.28
2023-05-10T20:10:05.440Z,97179.66
2023-05-10T20:12:33.042Z,97178.34
2023-05-10T20:15:00.589Z,97181.59
2023-05-10T20:17:28.140Z,97183.38
2023-05-10T20:19:55.738Z,97182.63
2023-05-10T20:22:24.715Z,97173.44
2023-05-10T20:24:53.798Z,97185.78
2023-05-10T20:27:23.252Z,97189.06
2023-05-10T20:29:50.715Z,97181.81
2023-05-10T20:32:18.189Z,97184.22
2023-05-10T20:34:45.706Z,97186.81
2023-05-10T20:37:13.258Z,97184.06
2023-05-10T20:39:42.080Z,97181.81
2023-05-10T20:42:09.578Z,97179.59
2023-05-10T20:44:37.287Z,97178.78
2023-05-10T20:47:04.821Z,97182.63
2023-05-10T20:49:32.346Z,97186.72
2023-05-10T20:52:00.393Z,97178.63
2023-05-10T20:54:29.121Z,97177.88
2023-05-10T20:56:58.020Z,97179.94
2023-05-10T20:59:25.532Z,97181.38
2023-05-10T21:01:53.116Z,97180.72
2023-05-10T21:04:21.248Z,97182.78
2023-05-10T21:06:48.807Z,97177.66
2023-05-10T21:09:17.008Z,97179.38
2023-05-10T21:11:44.676Z,97180.19
2023-05-10T21:14:13.472Z,97184.13
2023-05-10T21:16:41.225Z,97179.13
2023-05-10T21:19:08.933Z,97176.16
2023-05-10T21:21:36.643Z,97179.66
2023-05-10T21:24:04.567Z,97178.47
2023-05-10T21:26:32.169Z,97178.09
2023-05-10T21:28:59.655Z,97178.69
2023-05-10T21:31:28.535Z,97179.50
2023-05-10T21:33:56.920Z,97179.81
2023-05-10T21:36:26.052Z,97176.69
2023-05-10T21:38:55.290Z,97177.72
2023-05-10T21:41:22.806Z,97174.13
2023-05-10T21:43:50.330Z,97178.69
2023-05-10T21:46:17.877Z,97180.31
2023-05-10T21:48:46.921Z,97174.34
2023-05-10T21:51:15.453Z,97180.75
2023-05-10T21:53:45.369Z,97178.25
2023-05-10T21:56:12.906Z,97182.28
2023-05-10T21:58:40.634Z,97184.94
2023-05-10T22:01:08.248Z,97185.91
2023-05-10T22:03:35.792Z,97181.97
2023-05-10T22:06:05.190Z,97183.22
2023-05-10T22:08:32.651Z,97176.44
2023-05-10T22:11:00.148Z,97176.59
2023-05-10T22:13:27.705Z,97176.16
2023-05-10T22:15:55.218Z,97171.84
2023-05-10T22:18:22.717Z,97178.47
2023-05-10T22:20:50.268Z,97181.97
2023-05-10T22:23:19.089Z,97178.25
2023-05-10T22:25:46.576Z,97169.38
2023-05-10T22:28:14.047Z,97176.44
2023-05-10T22:30:42.446Z,97175.66
2023-05-10T22:33:09.924Z,97180.19
2023-05-10T22:35:37.438Z,97174.00
2023-05-10T22:38:05.048Z,97175.66
2023-05-10T22:40:33.855Z,97175.25
2023-05-10T22:43:02.054Z,97170.94
2023-05-10T22:45:29.574Z,97167.44
2023-05-10T22:47:57.526Z,97165.19
2023-05-10T22:50:25.084Z,97173.44
2023-05-10T22:52:52.653Z,97174.56
2023-05-10T22:55:20.364Z,97173.81
2023-05-10T22:57:49.238Z,97184.53
2023-05-10T23:00:17.628Z,97168.47
2023-05-10T23:02:45.798Z,97174.78
2023-05-10T23:05:13.726Z,97169.81
2023-05-10T23:07:41.476Z,97171.97
2023-05-10T23:10:09.446Z,97176.66
2023-05-10T23:12:37.135Z,97168.38
2023-05-10T23:15:07.126Z,97176.81
2023-05-10T23:17:34.676Z,97175.41
2023-05-10T23:20:02.236Z,97181.72
2023-05-10T23:22:29.806Z,97180.78
2023-05-10T23:24:57.408Z,97174.53
2023-05-10T23:27:25.055Z,97175.47
2023-05-10T23:29:55.581Z,97173.47
2023-05-10T23:32:24.613Z,97180.53
2023-05-10T23:34:52.152Z,97180.78
2023-05-10T23:37:19.699Z,97169.38
2023-05-10T23:39:47.711Z,97170.59
2023-05-10T23:42:15.191Z,97173.41
2023-05-10T23:44:42.656Z,97169.91
2023-05-10T23:47:10.160Z,97171.75
2023-05-10T23:49:41.967Z,97165.34
2023-05-10T23:52:09.545Z,97168.19
2023-05-10T23:54:37.043Z,97171.69
2023-05-10T23:57:04.559Z,97165.28
2023-05-10T23:59:32.058Z,97170.03
